^^
Your Local Weather - Clay, NY Station Historical Data
Daily Summary for March 7, 2017 Units:  Metric    English   Both
« Previous Day
Next Day »
Daily Weekly Monthly Yearly Custom
  High: Low: Average:
Temperature: 12.5 °C 3.2 °C 7.7 °C
Dew Point: 9 °C -5.3 °C 5.3 °C
Humidity: 94% 53% 86%
Wind Speed: 12.9km/h 0km/h 4.2km/h
Wind Gust: 19.3km/h - -
Wind- - SE
Pressure: 1021.6 hPa 1008.4 hPa -
Precipitation: 19.05 mm    
Historical Graphs
 
 
Tabular Data for March 7, 2017
Time Temperature Dew Point Pressure Wind Wind Speed Wind Gust Humidity Rainfall Rate (Hourly) solar
00:02 3.4 °C -5.2 °C 1021.6 hPa ENE 3.2 km/h 3.2 km/h 53% 0 mm 0 W/m2
00:08 3.4 °C -5.3 °C 1021.6 hPa East 3.2 km/h 8 km/h 53% 0 mm 0 W/m2
00:14 3.4 °C -4.8 °C 1021.6 hPa ENE 3.2 km/h 4.8 km/h 55% 0 mm 0 W/m2
00:20 3.5 °C -5.2 °C 1021.2 hPa ENE 3.2 km/h 3.2 km/h 53% 0 mm 0 W/m2
00:26 3.3 °C -4.7 °C 1021.2 hPa East 3.2 km/h 4.8 km/h 56% 0 mm 0 W/m2
00:32 3.3 °C -4.8 °C 1021.2 hPa East 3.2 km/h 4.8 km/h 55% 0 mm 0 W/m2
00:38 3.3 °C -4.6 °C 1021.2 hPa East 1.6 km/h 4.8 km/h 56% 0 mm 0 W/m2
00:44 3.4 °C -4.1 °C 1021.2 hPa ENE 1.6 km/h 3.2 km/h 58% 0 mm 0 W/m2
00:50 3.4 °C -4.3 °C 1021.2 hPa ENE 3.2 km/h 3.2 km/h 57% 0 mm 0 W/m2
00:56 3.3 °C -3.9 °C 1021.2 hPa ENE 1.6 km/h 4.8 km/h 59% 0 mm 0 W/m2
01:02 3.3 °C -3.7 °C 1021.2 hPa ENE 1.6 km/h 1.6 km/h 60% 0 mm 0 W/m2
01:08 3.4 °C -3.7 °C 1021.2 hPa ENE 1.6 km/h 3.2 km/h 60% 0 mm 0 W/m2
01:14 3.2 °C -3.4 °C 1021.2 hPa ENE 1.6 km/h 1.6 km/h 62% 0 mm 0 W/m2
01:20 3.6 °C -2.4 °C 1020.9 hPa SE 1.6 km/h 1.6 km/h 65% 0 mm 0 W/m2
01:26 3.8 °C -1.7 °C 1020.9 hPa SE 1.6 km/h 3.2 km/h 67% 0 mm 0 W/m2
01:32 4.7 °C 0.4 °C 1020.9 hPa SSE 1.6 km/h 4.8 km/h 74% 0 mm 0 W/m2
01:38 5.8 °C 2.3 °C 1020.9 hPa SE 4.8 km/h 11.3 km/h 78% 0 mm 0 W/m2
01:44 6.3 °C 2.7 °C 1020.9 hPa SE 6.4 km/h 6.4 km/h 78% 0 mm 0 W/m2
01:50 6.4 °C 2.9 °C 1020.9 hPa SE 8 km/h 8 km/h 78% 0 mm 0 W/m2
01:56 6.4 °C 2.9 °C 1020.9 hPa SSE 8 km/h 9.7 km/h 78% 0 mm 0 W/m2
02:02 6.5 °C 2.9 °C 1020.5 hPa SSE 6.4 km/h 6.4 km/h 78% 0 mm 0 W/m2
02:08 6.6 °C 3.1 °C 1020.5 hPa SSE 8 km/h 12.9 km/h 78% 0 mm 0 W/m2
02:14 6.7 °C 2.9 °C 1020.2 hPa SSE 6.4 km/h 9.7 km/h 77% 0 mm 0 W/m2
02:20 6.6 °C 3.2 °C 1020.2 hPa South 6.4 km/h 6.4 km/h 79% 0 mm 0 W/m2
02:26 6.3 °C 3.3 °C 1020.2 hPa SE 8 km/h 9.7 km/h 81% 3.05 mm 0 W/m2
02:32 6.1 °C 3.4 °C 1020.2 hPa SSE 6.4 km/h 8 km/h 83% 1.78 mm 0 W/m2
02:38 5.9 °C 3.4 °C 1020.2 hPa SE 4.8 km/h 8 km/h 84% 1.27 mm 0 W/m2
02:44 5.4 °C 2.9 °C 1020.2 hPa SE 4.8 km/h 4.8 km/h 84% 1.27 mm 0 W/m2
02:50 4.9 °C 2.6 °C 1019.9 hPa SE 3.2 km/h 3.2 km/h 85% 1.02 mm 0 W/m2
02:56 4.7 °C 2.7 °C 1019.9 hPa SE 3.2 km/h 11.3 km/h 87% 0 mm 0 W/m2
03:02 5.3 °C 3.5 °C 1019.9 hPa South 4.8 km/h 4.8 km/h 88% 0 mm 0 W/m2
03:08 5.7 °C 3.8 °C 1019.9 hPa SSE 6.4 km/h 9.7 km/h 88% 0 mm 0 W/m2
03:14 5.7 °C 3.7 °C 1019.9 hPa SE 6.4 km/h 11.3 km/h 87% 3.56 mm 0 W/m2
03:20 5.7 °C 3.7 °C 1019.5 hPa SE 8 km/h 8 km/h 87% 2.29 mm 0 W/m2
03:26 5.4 °C 3.4 °C 1019.5 hPa East 6.4 km/h 8 km/h 87% 1.27 mm 0 W/m2
03:32 5.4 °C 3.6 °C 1019.5 hPa SE 4.8 km/h 4.8 km/h 88% 0 mm 0 W/m2
03:38 5.1 °C 3.2 °C 1019.5 hPa SE 3.2 km/h 8 km/h 88% 0 mm 0 W/m2
03:44 5.2 °C 3.5 °C 1019.5 hPa SSE 3.2 km/h 4.8 km/h 89% 0 mm 0 W/m2
03:50 5.1 °C 3.4 °C 1019.5 hPa East 3.2 km/h 3.2 km/h 89% 2.03 mm 0 W/m2
03:56 4.9 °C 3.2 °C 1019.5 hPa East 1.6 km/h 3.2 km/h 89% 2.03 mm 0 W/m2
04:02 4.7 °C 3.2 °C 1019.5 hPa SE 1.6 km/h 6.4 km/h 90% 1.02 mm 0 W/m2
04:08 4.6 °C 3.1 °C 1019.5 hPa ESE 1.6 km/h 6.4 km/h 90% 0 mm 0 W/m2
04:14 4.8 °C 3.3 °C 1019.5 hPa SE 3.2 km/h 4.8 km/h 90% 2.54 mm 0 W/m2
04:20 4.8 °C 3.3 °C 1019.5 hPa East 3.2 km/h 3.2 km/h 90% 2.29 mm 0 W/m2
04:26 4.8 °C 3.3 °C 1019.5 hPa ESE 1.6 km/h 3.2 km/h 90% 1.52 mm 0 W/m2
04:32 4.9 °C 3.6 °C 1019.5 hPa SE 1.6 km/h 6.4 km/h 91% 1.52 mm 0 W/m2
04:38 4.9 °C 3.6 °C 1019.5 hPa SE 3.2 km/h 6.4 km/h 91% 1.02 mm 0 W/m2
04:44 4.7 °C 3.3 °C 1019.2 hPa ENE 1.6 km/h 3.2 km/h 91% 0 mm 0 W/m2
04:50 4.6 °C 3.2 °C 1019.5 hPa ENE 3.2 km/h 3.2 km/h 91% 0 mm 0 W/m2
04:56 4.3 °C 3 °C 1019.2 hPa ESE 1.6 km/h 3.2 km/h 91% 0 mm 0 W/m2
05:02 4.6 °C 3.3 °C 1019.2 hPa SE 3.2 km/h 3.2 km/h 91% 4.83 mm 0 W/m2
05:08 4.8 °C 3.4 °C 1019.2 hPa East 3.2 km/h 6.4 km/h 91% 5.08 mm 0 W/m2
05:14 4.7 °C 3.3 °C 1019.2 hPa East 3.2 km/h 3.2 km/h 91% 2.54 mm 0 W/m2
05:20 4.6 °C 3.4 °C 1019.2 hPa East 1.6 km/h 1.6 km/h 92% 1.27 mm 0 W/m2
05:26 4.4 °C 3.3 °C 1019.2 hPa ENE 3.2 km/h 8 km/h 92% 0 mm 0 W/m2
05:32 4.4 °C 3.2 °C 1019.2 hPa ENE 4.8 km/h 9.7 km/h 92% 0 mm 0 W/m2
05:38 4.2 °C 3.1 °C 1019.2 hPa ENE 4.8 km/h 9.7 km/h 92% 0 mm 0 W/m2
05:44 4.1 °C 2.9 °C 1019.2 hPa East 3.2 km/h 4.8 km/h 92% 0 mm 0 W/m2
05:50 4.1 °C 2.9 °C 1019.2 hPa East 3.2 km/h 3.2 km/h 92% 2.03 mm 0 W/m2
05:56 4 °C 2.8 °C 1019.2 hPa East 3.2 km/h 4.8 km/h 92% 2.03 mm 0 W/m2
06:02 3.9 °C 2.7 °C 1018.8 hPa East 4.8 km/h 4.8 km/h 92% 1.27 mm 0 W/m2
06:08 3.8 °C 2.7 °C 1018.8 hPa East 4.8 km/h 4.8 km/h 92% 1.27 mm 0 W/m2
06:14 3.8 °C 2.6 °C 1018.8 hPa ENE 4.8 km/h 4.8 km/h 92% 1.27 mm 0 W/m2
06:20 3.8 °C 2.6 °C 1018.8 hPa East 4.8 km/h 8 km/h 92% 0 mm 0 W/m2
06:26 3.7 °C 2.6 °C 1018.5 hPa East 4.8 km/h 8 km/h 92% 0 mm 0 W/m2
06:32 3.7 °C 2.5 °C 1018.5 hPa East 3.2 km/h 8 km/h 92% 0 mm 0 W/m2
06:38 3.7 °C 2.5 °C 1018.5 hPa ENE 3.2 km/h 8 km/h 92% 0 mm 0 W/m2
06:44 3.7 °C 2.7 °C 1018.5 hPa ENE 3.2 km/h 4.8 km/h 93% 0 mm 0 W/m2
06:50 3.7 °C 2.6 °C 1018.5 hPa ENE 3.2 km/h 3.2 km/h 92% 0 mm 0 W/m2
06:56 3.6 °C 2.6 °C 1018.5 hPa ENE 3.2 km/h 4.8 km/h 93% 0 mm 0 W/m2
07:02 3.3 °C 2.1 °C 1018.5 hPa ENE 1.6 km/h 3.2 km/h 92% 0 mm 5 W/m2
07:08 3.3 °C 2.2 °C 1018.5 hPa East 3.2 km/h 6.4 km/h 92% 0 mm 5 W/m2
07:14 3.4 °C 2.4 °C 1018.5 hPa ENE 4.8 km/h 6.4 km/h 93% 0 mm 7 W/m2
07:20 3.4 °C 2.4 °C 1018.5 hPa East 4.8 km/h 4.8 km/h 93% 0 mm 9 W/m2
07:26 3.4 °C 2.4 °C 1018.2 hPa ENE 3.2 km/h 14.5 km/h 93% 0 mm 11 W/m2
07:32 3.4 °C 2.4 °C 1018.2 hPa East 4.8 km/h 8 km/h 93% 0 mm 12 W/m2
07:38 3.3 °C 2.3 °C 1018.2 hPa East 3.2 km/h 8 km/h 93% 0 mm 16 W/m2
07:44 3.3 °C 2.3 °C 1018.2 hPa East 1.6 km/h 3.2 km/h 93% 0 mm 21 W/m2
07:50 3.3 °C 2.3 °C 1017.8 hPa ENE 1.6 km/h 4.8 km/h 93% 0 mm 18 W/m2
07:56 3.3 °C 2.3 °C 1017.8 hPa ENE 3.2 km/h 4.8 km/h 93% 0 mm 28 W/m2
08:02 3.4 °C 2.4 °C 1017.8 hPa ENE 3.2 km/h 6.4 km/h 93% 0 mm 35 W/m2
08:08 3.4 °C 2.4 °C 1017.8 hPa East 3.2 km/h 6.4 km/h 93% 0 mm 33 W/m2
08:14 3.6 °C 2.6 °C 1017.8 hPa ENE 4.8 km/h 4.8 km/h 93% 0 mm 39 W/m2
08:20 3.6 °C 2.6 °C 1017.8 hPa ENE 3.2 km/h 4.8 km/h 93% 0 mm 51 W/m2
08:26 3.8 °C 2.7 °C 1017.8 hPa ENE 3.2 km/h 4.8 km/h 93% 0 mm 49 W/m2
08:32 3.9 °C 2.8 °C 1017.5 hPa East 3.2 km/h 3.2 km/h 93% 0 mm 44 W/m2
08:38 4 °C 2.9 °C 1017.5 hPa SE 3.2 km/h 6.4 km/h 93% 0 mm 40 W/m2
08:44 4.2 °C 3.2 °C 1017.5 hPa ENE 3.2 km/h 3.2 km/h 93% 0 mm 47 W/m2
08:50 4.3 °C 3.2 °C 1017.5 hPa ENE 3.2 km/h 3.2 km/h 93% 0 mm 58 W/m2
08:56 4.4 °C 3.4 °C 1017.5 hPa ENE 1.6 km/h 4.8 km/h 93% 0 mm 58 W/m2
09:02 4.7 °C 3.6 °C 1017.5 hPa East 1.6 km/h 4.8 km/h 93% 0 mm 40 W/m2
09:08 4.7 °C 3.6 °C 1017.5 hPa ENE 1.6 km/h 4.8 km/h 93% 0 mm 35 W/m2
09:14 4.8 °C 3.7 °C 1017.2 hPa East 1.6 km/h 3.2 km/h 93% 0 mm 35 W/m2
09:20 5.4 °C 4.4 °C 1016.8 hPa SSE 3.2 km/h 6.4 km/h 93% 1.02 mm 65 W/m2
09:26 6.8 °C 5.9 °C 1016.8 hPa South 4.8 km/h 14.5 km/h 94% 1.02 mm 62 W/m2
09:32 7.2 °C 6.2 °C 1016.8 hPa SSE 8 km/h 11.3 km/h 93% 1.02 mm 65 W/m2
09:38 7.4 °C 6.3 °C 1016.8 hPa SSE 8 km/h 11.3 km/h 93% 0 mm 65 W/m2
09:44 7.5 °C 6.4 °C 1016.8 hPa SSE 8 km/h 8 km/h 93% 0 mm 39 W/m2
09:50 7.6 °C 6.3 °C 1016.8 hPa SE 6.4 km/h 6.4 km/h 92% 1.52 mm 35 W/m2
09:56 7.6 °C 6.2 °C 1016.5 hPa SE 6.4 km/h 6.4 km/h 91% 1.52 mm 47 W/m2
10:02 7.8 °C 6.2 °C 1016.5 hPa ESE 8 km/h 12.9 km/h 90% 1.27 mm 53 W/m2
10:08 7.9 °C 6.2 °C 1016.5 hPa SE 9.7 km/h 12.9 km/h 89% 0 mm 40 W/m2
10:14 7.9 °C 6.2 °C 1016.1 hPa SSE 8 km/h 9.7 km/h 89% 0 mm 46 W/m2
10:20 7.9 °C 6 °C 1016.1 hPa SSE 6.4 km/h 6.4 km/h 88% 0 mm 35 W/m2
10:26 7.8 °C 6.1 °C 1016.1 hPa SE 4.8 km/h 6.4 km/h 89% 0 mm 40 W/m2
10:32 7.9 °C 6.2 °C 1016.1 hPa SE 4.8 km/h 9.7 km/h 89% 0 mm 42 W/m2
10:38 7.8 °C 6.1 °C 1016.1 hPa East 3.2 km/h 9.7 km/h 89% 0 mm 40 W/m2
10:44 7.8 °C 6.1 °C 1016.1 hPa ENE 1.6 km/h 1.6 km/h 89% 0 mm 46 W/m2
10:50 7.7 °C 5.9 °C 1016.1 hPa ENE 1.6 km/h 1.6 km/h 89% 0 mm 37 W/m2
10:56 7.7 °C 6.1 °C 1016.1 hPa SSE 3.2 km/h 4.8 km/h 90% 0 mm 42 W/m2
11:02 7.8 °C 6.3 °C 1016.1 hPa East 3.2 km/h 3.2 km/h 90% 0 mm 88 W/m2
11:08 7.3 °C 5.7 °C 1016.1 hPa East 1.6 km/h 3.2 km/h 89% 3.56 mm 114 W/m2
11:14 6.9 °C 5.4 °C 1016.1 hPa NE 3.2 km/h 3.2 km/h 90% 1.52 mm 72 W/m2
11:20 6.8 °C 5.3 °C 1016.1 hPa NE 1.6 km/h 1.6 km/h 90% 1.02 mm 56 W/m2
11:26 6.9 °C 5.5 °C 1016.1 hPa Calm   1.6 km/h 91% 7.37 mm 72 W/m2
11:32 6.8 °C 5.4 °C 1016.1 hPa NE 1.6 km/h 3.2 km/h 91% 4.32 mm 84 W/m2
11:38 6.9 °C 5.6 °C 1015.8 hPa NE 1.6 km/h 3.2 km/h 91% 7.11 mm 54 W/m2
11:44 7.2 °C 6 °C 1015.8 hPa ENE 3.2 km/h 4.8 km/h 92% 6.1 mm 30 W/m2
11:50 7.2 °C 5.9 °C 1015.8 hPa ESE 3.2 km/h 3.2 km/h 92% 30.73 mm 32 W/m2
11:56 7.4 °C 6.2 °C 1015.8 hPa East 1.6 km/h 4.8 km/h 92% 6.35 mm 28 W/m2
12:02 7.7 °C 6.5 °C 1015.8 hPa SE 1.6 km/h 3.2 km/h 92% 2.54 mm 28 W/m2
12:08 7.8 °C 6.8 °C 1015.5 hPa ESE 1.6 km/h 3.2 km/h 93% 1.52 mm 35 W/m2
12:14 8.1 °C 6.9 °C 1015.5 hPa SE 4.8 km/h 9.7 km/h 92% 10.67 mm 42 W/m2
12:20 8.3 °C 7.2 °C 1015.5 hPa SE 6.4 km/h 6.4 km/h 93% 8.38 mm 40 W/m2
12:26 8.3 °C 7.1 °C 1015.1 hPa SSE 4.8 km/h 6.4 km/h 92% 6.6 mm 44 W/m2
12:32 8.4 °C 7.2 °C 1015.1 hPa SSE 4.8 km/h 6.4 km/h 92% 3.56 mm 42 W/m2
12:38 8.5 °C 7.3 °C 1014.8 hPa SSE 4.8 km/h 6.4 km/h 92% 2.79 mm 90 W/m2
12:44 8.6 °C 7.4 °C 1014.8 hPa ESE 4.8 km/h 8 km/h 92% 1.52 mm 97 W/m2
12:50 8.8 °C 7.4 °C 1014.4 hPa SSE 3.2 km/h 8 km/h 91% 1.02 mm 91 W/m2
12:56 8.9 °C 7.6 °C 1014.4 hPa SSE 3.2 km/h 8 km/h 91% 0 mm 65 W/m2
13:02 8.7 °C 7.1 °C 1014.1 hPa ESE 1.6 km/h 3.2 km/h 90% 0 mm 42 W/m2
13:08 8.4 °C 7.1 °C 1014.1 hPa ESE 1.6 km/h 4.8 km/h 91% 0 mm 49 W/m2
13:14 8.3 °C 6.9 °C 1014.1 hPa East 1.6 km/h 3.2 km/h 91% 0 mm 67 W/m2
13:20 8 °C 6.6 °C 1013.8 hPa East 1.6 km/h 1.6 km/h 91% 0 mm 62 W/m2
13:26 7.6 °C 6.2 °C 1013.8 hPa East 1.6 km/h 1.6 km/h 91% 0 mm 49 W/m2
13:32 7.5 °C 6.1 °C 1013.8 hPa Calm   1.6 km/h 91% 0 mm 44 W/m2
13:38 7.5 °C 6.1 °C 1013.8 hPa ENE 1.6 km/h 4.8 km/h 91% 0 mm 58 W/m2
13:44 7.4 °C 6.2 °C 1013.4 hPa East 1.6 km/h 3.2 km/h 92% 0 mm 74 W/m2
13:50 7.8 °C 6.6 °C 1013.4 hPa East 1.6 km/h 1.6 km/h 92% 0 mm 79 W/m2
13:56 8.3 °C 7.1 °C 1013.1 hPa SE 1.6 km/h 1.6 km/h 92% 0 mm 86 W/m2
14:02 8.8 °C 7.6 °C 1013.1 hPa SE 1.6 km/h 3.2 km/h 92% 0 mm 79 W/m2
14:08 9 °C 7.8 °C 1013.1 hPa ESE 1.6 km/h 3.2 km/h 92% 0 mm 91 W/m2
14:14 9.1 °C 7.8 °C 1013.1 hPa ESE 1.6 km/h 1.6 km/h 92% 0 mm 105 W/m2
14:20 9.2 °C 7.9 °C 1013.1 hPa ESE 1.6 km/h 1.6 km/h 92% 0 mm 123 W/m2
14:26 9.4 °C 8.2 °C 1013.1 hPa East 1.6 km/h 3.2 km/h 92% 0 mm 104 W/m2
14:32 9.6 °C 8.2 °C 1012.8 hPa East 1.6 km/h 1.6 km/h 91% 0 mm 76 W/m2
14:38 9.5 °C 8.1 °C 1012.8 hPa East 1.6 km/h 3.2 km/h 91% 0 mm 54 W/m2
14:44 9.3 °C 7.9 °C 1012.8 hPa East 1.6 km/h 1.6 km/h 91% 0 mm 65 W/m2
14:50 9.1 °C 7.7 °C 1012.8 hPa Calm   4.8 km/h 91% 0 mm 47 W/m2
14:56 8.7 °C 7.3 °C 1012.8 hPa East 1.6 km/h 4.8 km/h 91% 0 mm 58 W/m2
15:02 8.4 °C 7 °C 1012.8 hPa East 1.6 km/h 3.2 km/h 91% 0 mm 44 W/m2
15:08 8.4 °C 7.2 °C 1012.8 hPa SE 1.6 km/h 3.2 km/h 92% 2.03 mm 54 W/m2
15:14 8.7 °C 7.4 °C 1012.4 hPa East 1.6 km/h 3.2 km/h 92% 1.52 mm 56 W/m2
15:20 8.7 °C 7.4 °C 1012.4 hPa SSW 1.6 km/h 4.8 km/h 92% 1.02 mm 54 W/m2
15:26 9.1 °C 7.8 °C 1012.4 hPa SSE 3.2 km/h 4.8 km/h 92% 0 mm 69 W/m2
15:32 8.8 °C 7.4 °C 1012.1 hPa SSE 1.6 km/h 3.2 km/h 91% 0 mm 74 W/m2
15:38 8.8 °C 7.4 °C 1012.1 hPa SSE 1.6 km/h 6.4 km/h 91% 0 mm 49 W/m2
15:44 9.2 °C 8 °C 1012.1 hPa SE 1.6 km/h 1.6 km/h 92% 0 mm 42 W/m2
15:50 8.9 °C 7.5 °C 1012.1 hPa SE 1.6 km/h 1.6 km/h 91% 0 mm 44 W/m2
15:56 8.9 °C 7.7 °C 1012.1 hPa SE 1.6 km/h 4.8 km/h 92% 0 mm 40 W/m2
16:02 9 °C 7.8 °C 1012.1 hPa SE 1.6 km/h 1.6 km/h 92% 0 mm 44 W/m2
16:08 9 °C 7.8 °C 1012.1 hPa Calm   1.6 km/h 92% 1.02 mm 42 W/m2
16:14 9.3 °C 8.1 °C 1012.1 hPa Calm     92% 1.02 mm 49 W/m2
16:20 9.7 °C 8.5 °C 1012.1 hPa SSE 1.6 km/h 9.7 km/h 92% 1.02 mm 37 W/m2
16:26 10.2 °C 9 °C 1011.7 hPa SSE 3.2 km/h 9.7 km/h 92% 1.02 mm 28 W/m2
16:32 10.4 °C 9 °C 1011.7 hPa SSE 4.8 km/h 9.7 km/h 91% 2.79 mm 21 W/m2
16:38 10.5 °C 8.8 °C 1011.7 hPa SSE 4.8 km/h 9.7 km/h 89% 3.05 mm 18 W/m2
16:44 10.4 °C 8.6 °C 1011.7 hPa SSE 1.6 km/h 4.8 km/h 88% 2.79 mm 19 W/m2
16:50 10.4 °C 8.5 °C 1011.7 hPa SE 3.2 km/h 3.2 km/h 88% 1.27 mm 11 W/m2
16:56 10.1 °C 8.2 °C 1011.4 hPa ESE 1.6 km/h 4.8 km/h 88% 1.02 mm 14 W/m2
17:02 9.9 °C 8.2 °C 1011.4 hPa SSE 3.2 km/h 6.4 km/h 89% 2.03 mm 9 W/m2
17:08 9.9 °C 8.2 °C 1011.4 hPa SSE 3.2 km/h 6.4 km/h 89% 2.03 mm 7 W/m2
17:14 9.9 °C 8.2 °C 1011.4 hPa ESE 3.2 km/h 4.8 km/h 89% 1.52 mm 11 W/m2
17:20 10 °C 8.4 °C 1011.4 hPa ESE 3.2 km/h 4.8 km/h 90% 1.52 mm 14 W/m2
17:26 10 °C 8.3 °C 1011.7 hPa SE 3.2 km/h 4.8 km/h 89% 1.78 mm 12 W/m2
17:32 10.1 °C 8.4 °C 1011.4 hPa SE 3.2 km/h 6.4 km/h 89% 1.27 mm 12 W/m2
17:38 10.2 °C 8.4 °C 1011.4 hPa SE 6.4 km/h 6.4 km/h 89% 0 mm 9 W/m2
17:44 10.2 °C 8.4 °C 1011.4 hPa SSE 6.4 km/h 6.4 km/h 89% 0 mm 11 W/m2
17:50 10.3 °C 8.4 °C 1011.4 hPa South 4.8 km/h 6.4 km/h 88% 0 mm 9 W/m2
17:56 10.3 °C 8.4 °C 1011.4 hPa SSE 4.8 km/h 6.4 km/h 88% 0 mm 5 W/m2
18:02 10.1 °C 8.2 °C 1011.4 hPa SE 1.6 km/h 3.2 km/h 88% 0 mm 0 W/m2
18:08 9.8 °C 7.9 °C 1011.4 hPa SSE 1.6 km/h 3.2 km/h 88% 0 mm 0 W/m2
18:14 9.4 °C 7.7 °C 1011.7 hPa SE 1.6 km/h 1.6 km/h 89% 0 mm 0 W/m2
18:20 9.5 °C 7.8 °C 1012.1 hPa SSW 1.6 km/h 4.8 km/h 89% 0 mm 0 W/m2
18:26 9.9 °C 8.2 °C 1011.7 hPa SSE 3.2 km/h 6.4 km/h 89% 0 mm 0 W/m2
18:32 10.2 °C 8.1 °C 1012.1 hPa SSE 3.2 km/h 11.3 km/h 87% 0 mm 0 W/m2
18:38 10.7 °C 8.2 °C 1012.1 hPa SSE 3.2 km/h 11.3 km/h 85% 0 mm 0 W/m2
18:44 10.9 °C 8.3 °C 1012.1 hPa South 3.2 km/h 3.2 km/h 84% 0 mm 0 W/m2
18:50 10.9 °C 8.2 °C 1012.1 hPa South 3.2 km/h 3.2 km/h 83% 0 mm 0 W/m2
18:56 10.9 °C 8.2 °C 1012.1 hPa SSE 4.8 km/h 4.8 km/h 83% 0 mm 0 W/m2
19:02 11.1 °C 8.3 °C 1011.7 hPa South 4.8 km/h 6.4 km/h 83% 0 mm 0 W/m2
19:08 11.3 °C 8.2 °C 1011.7 hPa South 6.4 km/h 8 km/h 81% 0 mm 0 W/m2
19:14 11.4 °C 8.2 °C 1012.1 hPa South 4.8 km/h 6.4 km/h 81% 0 mm 0 W/m2
19:20 11.4 °C 8.1 °C 1011.7 hPa WSW 4.8 km/h 4.8 km/h 80% 0 mm 0 W/m2
19:26 11.4 °C 8.2 °C 1011.7 hPa SE 4.8 km/h 4.8 km/h 81% 0 mm 0 W/m2
19:32 11.5 °C 8.2 °C 1011.7 hPa South 4.8 km/h 6.4 km/h 80% 0 mm 0 W/m2
19:38 11.5 °C 8.2 °C 1011.4 hPa SW 4.8 km/h 6.4 km/h 80% 0 mm 0 W/m2
19:44 11.4 °C 8.1 °C 1011.4 hPa SSW 4.8 km/h 6.4 km/h 80% 0 mm 0 W/m2
19:50 11.6 °C 8.2 °C 1011.4 hPa South 3.2 km/h 8 km/h 80% 0 mm 0 W/m2
19:56 11.6 °C 8.2 °C 1011.1 hPa South 3.2 km/h 8 km/h 80% 0 mm 0 W/m2
20:02 11.6 °C 8.3 °C 1011.1 hPa SSE 4.8 km/h 9.7 km/h 80% 0 mm 0 W/m2
20:08 11.7 °C 8.3 °C 1011.1 hPa South 6.4 km/h 12.9 km/h 80% 0 mm 0 W/m2
20:14 11.7 °C 8.4 °C 1010.7 hPa SSE 6.4 km/h 6.4 km/h 80% 0 mm 0 W/m2
20:20 11.8 °C 8.3 °C 1010.4 hPa SSW 8 km/h 8 km/h 79% 0 mm 0 W/m2
20:26 11.9 °C 8.2 °C 1010.4 hPa SSE 9.7 km/h 16.1 km/h 78% 0 mm 0 W/m2
20:32 11.9 °C 8.2 °C 1010.4 hPa South 11.3 km/h 11.3 km/h 78% 0 mm 0 W/m2
20:38 11.9 °C 8.2 °C 1010.4 hPa SW 11.3 km/h 16.1 km/h 78% 0 mm 0 W/m2
20:44 11.9 °C 8.3 °C 1010.4 hPa WSW 9.7 km/h 17.7 km/h 79% 0 mm 0 W/m2
20:50 12 °C 8.3 °C 1010.4 hPa SSE 11.3 km/h 14.5 km/h 78% 0 mm 0 W/m2
20:56 12 °C 8.3 °C 1010 hPa South 11.3 km/h 14.5 km/h 78% 0 mm 0 W/m2
21:02 11.9 °C 8.2 °C 1010 hPa SSW 9.7 km/h 12.9 km/h 78% 0 mm 0 W/m2
21:08 11.9 °C 8.2 °C 1009.7 hPa SE 9.7 km/h 12.9 km/h 78% 0 mm 0 W/m2
21:14 11.9 °C 8.2 °C 1009.4 hPa South 9.7 km/h 12.9 km/h 78% 0 mm 0 W/m2
21:20 11.9 °C 8.2 °C 1009.7 hPa SSE 9.7 km/h 14.5 km/h 78% 0 mm 0 W/m2
21:26 11.9 °C 8.4 °C 1009.7 hPa SSE 11.3 km/h 14.5 km/h 79% 0 mm 0 W/m2
21:32 11.9 °C 8.3 °C 1009.4 hPa SW 9.7 km/h 9.7 km/h 79% 0 mm 0 W/m2
21:38 12 °C 8.4 °C 1009.4 hPa South 9.7 km/h 16.1 km/h 79% 0 mm 0 W/m2
21:44 12 °C 8.4 °C 1009.4 hPa SSW 11.3 km/h 14.5 km/h 79% 0 mm 0 W/m2
21:50 12 °C 8.4 °C 1009 hPa SSW 9.7 km/h 9.7 km/h 79% 0 mm 0 W/m2
21:56 12.1 °C 8.4 °C 1009 hPa South 11.3 km/h 14.5 km/h 78% 0 mm 0 W/m2
22:02 12.1 °C 8.5 °C 1009 hPa SSE 8 km/h 9.7 km/h 79% 0 mm 0 W/m2
22:08 12.2 °C 8.4 °C 1008.7 hPa WSW 9.7 km/h 11.3 km/h 78% 0 mm 0 W/m2
22:14 12.2 °C 8.5 °C 1008.4 hPa SW 9.7 km/h 14.5 km/h 78% 0 mm 0 W/m2
22:20 12.3 °C 8.6 °C 1008.4 hPa South 8 km/h 8 km/h 78% 0 mm 0 W/m2
22:26 12.4 °C 8.7 °C 1008.4 hPa SW 8 km/h 14.5 km/h 78% 0 mm 0 W/m2
22:32 12.4 °C 8.7 °C 1008.4 hPa SSE 8 km/h 8 km/h 78% 0 mm 0 W/m2
22:38 12.4 °C 8.5 °C 1008.7 hPa SW 6.4 km/h 8 km/h 77% 0 mm 0 W/m2
22:44 12.4 °C 8.5 °C 1008.7 hPa SSW 6.4 km/h 9.7 km/h 77% 0 mm 0 W/m2
22:50 12.4 °C 8.7 °C 1008.7 hPa South 6.4 km/h 9.7 km/h 78% 0 mm 0 W/m2
22:56 12.4 °C 8.7 °C 1008.4 hPa South 4.8 km/h 9.7 km/h 78% 0 mm 0 W/m2
23:02 12.3 °C 8.6 °C 1008.4 hPa South 3.2 km/h 4.8 km/h 78% 0 mm 0 W/m2
23:08 12.4 °C 8.7 °C 1008.4 hPa SSW 4.8 km/h 8 km/h 78% 0 mm 0 W/m2
23:14 12.4 °C 8.7 °C 1008.4 hPa SW 4.8 km/h 8 km/h 78% 0 mm 0 W/m2
23:20 12.5 °C 8.8 °C 1008.4 hPa SW 3.2 km/h 3.2 km/h 78% 0 mm 0 W/m2
23:26 12.4 °C 8.7 °C 1008.7 hPa West 4.8 km/h 9.7 km/h 78% 0 mm 0 W/m2
23:32 12 °C 9 °C 1008.7 hPa NW 6.4 km/h 6.4 km/h 82% 0 mm 0 W/m2
23:38 11.4 °C 8.9 °C 1009.4 hPa WNW 6.4 km/h 6.4 km/h 85% 0 mm 0 W/m2
23:44 10.8 °C 8.6 °C 1009.4 hPa NW 6.4 km/h 9.7 km/h 86% 2.54 mm 0 W/m2
23:50 9.6 °C 7.2 °C 1009.7 hPa WNW 8 km/h 19.3 km/h 85% 5.08 mm 0 W/m2
23:56 7.9 °C 5.6 °C 1010.4 hPa WNW 12.9 km/h 19.3 km/h 85% 6.1 mm 0 W/m2
Country Meadow, Clay, NY, USA
Compliments of Weather Underground - 2 mb